Terminal Aerodrome Forecast
Issued by NWS

Home | Current Version | Previous Version | Text Only | Print | Product List | Glossary On
Versions: 1 2 3 4 5 6 7 8 9 10 11 12 13 14 15 16 17 18 19 20 21 22 23 24 25 26 27 28 29 30 31 32 33 34 35 36 37 38 39 40
000
FTAK31 PAFA 301120
TAFASC
TAF
PASC 301120Z 3012/3112 06004KT 1/4SM FZFG VV002
     FM301900 08013KT P6SM OVC007
     FM302200 08013KT P6SM FEW007 OVC050
     FM310300 08016KT P6SM SCT050 BKN200=

USA.gov is the U.S. government's official web portal to all federal, state and local government web resources and services.